createdAt,value
2023-03-02T00:01:17.193Z,-0.51
2023-03-02T00:04:21.620Z,-0.46
2023-03-02T00:07:24.524Z,-0.41
2023-03-02T00:10:26.416Z,-0.42
2023-03-02T00:13:30.797Z,-0.39
2023-03-02T00:16:32.795Z,-0.37
2023-03-02T00:19:34.548Z,-0.39
2023-03-02T00:22:36.435Z,-0.38
2023-03-02T00:25:38.030Z,-0.32
2023-03-02T00:28:41.152Z,-0.33
2023-03-02T00:31:42.895Z,-0.39
2023-03-02T00:34:44.453Z,-0.41
2023-03-02T00:37:46.129Z,-0.42
2023-03-02T00:40:49.501Z,-0.34
2023-03-02T00:43:52.334Z,-0.30
2023-03-02T00:46:54.084Z,-0.34
2023-03-02T00:49:56.296Z,-0.33
2023-03-02T00:52:58.078Z,-0.33
2023-03-02T00:55:59.787Z,-0.32
2023-03-02T00:59:05.783Z,-0.34
2023-03-02T01:02:08.614Z,-0.35
2023-03-02T01:05:10.326Z,-0.36
2023-03-02T01:08:12.243Z,-0.36
2023-03-02T01:11:14.735Z,-0.42
2023-03-02T01:14:17.932Z,-0.42
2023-03-02T01:17:22.044Z,-0.39
2023-03-02T01:20:23.635Z,-0.38
2023-03-02T01:23:25.109Z,-0.38
2023-03-02T01:26:26.733Z,-0.37
2023-03-02T01:29:29.825Z,-0.42
2023-03-02T01:32:31.446Z,-0.45
2023-03-02T01:35:33.061Z,-0.52
2023-03-02T01:38:34.824Z,-0.56
2023-03-02T01:41:36.473Z,-0.59
2023-03-02T01:44:41.695Z,-0.66
2023-03-02T01:47:43.278Z,-0.69
2023-03-02T01:50:50.022Z,-0.71
2023-03-02T01:53:54.615Z,-0.66
2023-03-02T01:56:59.998Z,-0.64
2023-03-02T02:00:10.545Z,-0.66
2023-03-02T02:03:20.855Z,-0.64
2023-03-02T02:06:25.238Z,-0.65
2023-03-02T02:09:28.183Z,-0.68
2023-03-02T02:12:30.243Z,-0.64
2023-03-02T02:15:33.292Z,-0.60
2023-03-02T02:18:36.664Z,-0.52
2023-03-02T02:21:38.322Z,-0.47
2023-03-02T02:24:43.003Z,-0.45
2023-03-02T02:27:46.670Z,-0.41
2023-03-02T02:30:50.575Z,-0.38
2023-03-02T02:33:55.343Z,-0.38
2023-03-02T02:37:00.814Z,-0.39
2023-03-02T02:40:07.445Z,-0.42
2023-03-02T02:43:12.648Z,-0.43
2023-03-02T02:46:14.312Z,-0.53
2023-03-02T02:49:21.396Z,-0.58
2023-03-02T02:52:24.972Z,-0.63
2023-03-02T02:55:26.750Z,-0.69
2023-03-02T02:58:31.760Z,-0.76
2023-03-02T03:01:33.779Z,-0.74
2023-03-02T03:04:36.280Z,-0.73
2023-03-02T03:07:37.888Z,-0.71
2023-03-02T03:10:41.332Z,-0.68
2023-03-02T03:13:46.822Z,-0.62
2023-03-02T03:16:49.588Z,-0.62
2023-03-02T03:19:51.570Z,-0.57
2023-03-02T03:22:53.734Z,-0.55
2023-03-02T03:25:56.394Z,-0.56
2023-03-02T03:28:59.834Z,-0.66
2023-03-02T03:32:03.198Z,-0.75
2023-03-02T03:35:08.803Z,-0.85
2023-03-02T03:38:10.878Z,-0.89
2023-03-02T03:41:13.016Z,-0.94
2023-03-02T03:44:16.019Z,-0.99
2023-03-02T03:47:19.437Z,-1.03
2023-03-02T03:50:21.697Z,-1.05
2023-03-02T03:53:23.432Z,-1.03
2023-03-02T03:56:25.109Z,-1.05
2023-03-02T03:59:28.114Z,-1.07
2023-03-02T04:02:36.263Z,-1.10
2023-03-02T04:05:38.042Z,-1.13
2023-03-02T04:08:40.085Z,-1.16
2023-03-02T04:11:42.982Z,-1.21
2023-03-02T04:14:46.618Z,-1.19
2023-03-02T04:17:48.266Z,-1.14
2023-03-02T04:20:52.313Z,-1.10
2023-03-02T04:23:54.332Z,-1.10
2023-03-02T04:26:57.338Z,-1.07
2023-03-02T04:30:00.658Z,-1.08
2023-03-02T04:33:03.668Z,-1.08
2023-03-02T04:36:07.119Z,-1.08
2023-03-02T04:39:09.353Z,-1.10
2023-03-02T04:42:10.952Z,-1.11
2023-03-02T04:45:14.384Z,-1.06
2023-03-02T04:48:16.061Z,-1.03
2023-03-02T04:51:19.324Z,-1.04
2023-03-02T04:54:22.305Z,-1.08
2023-03-02T04:57:23.822Z,-1.13
2023-03-02T05:00:28.944Z,-1.08
2023-03-02T05:03:30.573Z,-1.10
2023-03-02T05:06:32.460Z,-1.13
2023-03-02T05:09:34.120Z,-1.18
2023-03-02T05:12:54.463Z,-1.21
2023-03-02T05:15:58.490Z,-1.22
2023-03-02T05:19:00.783Z,-1.25
2023-03-02T05:22:02.418Z,-1.31
2023-03-02T05:25:04.609Z,-1.40
2023-03-02T05:28:06.396Z,-1.46
2023-03-02T05:31:10.536Z,-1.49
2023-03-02T05:34:13.715Z,-1.51
2023-03-02T05:37:15.285Z,-1.49
2023-03-02T05:40:18.554Z,-1.51
2023-03-02T05:43:21.651Z,-1.53
2023-03-02T05:46:24.586Z,-1.47
2023-03-02T05:49:26.290Z,-1.45
2023-03-02T05:52:27.894Z,-1.46
2023-03-02T05:55:29.667Z,-1.40
2023-03-02T05:58:31.373Z,-1.39
2023-03-02T06:01:35.697Z,-1.37
2023-03-02T06:04:42.972Z,-1.30
2023-03-02T06:07:44.622Z,-1.25
2023-03-02T06:10:46.187Z,-1.17
2023-03-02T06:13:48.000Z,-1.15
2023-03-02T06:16:50.994Z,-1.15
2023-03-02T06:19:52.784Z,-1.19
2023-03-02T06:22:54.397Z,-1.22
2023-03-02T06:25:56.366Z,-1.25
2023-03-02T06:28:58.834Z,-1.17
2023-03-02T06:32:01.974Z,-1.18
2023-03-02T06:35:04.454Z,-1.21
2023-03-02T06:38:06.228Z,-1.21
2023-03-02T06:41:08.072Z,-1.15
2023-03-02T06:44:09.785Z,-1.10
2023-03-02T06:47:12.677Z,-1.07
2023-03-02T06:50:14.471Z,-1.03
2023-03-02T06:53:18.441Z,-0.98
2023-03-02T06:56:20.245Z,-0.97
2023-03-02T06:59:21.763Z,-0.97
2023-03-02T07:02:24.877Z,-0.97
2023-03-02T07:05:26.744Z,-0.90
2023-03-02T07:08:28.873Z,-0.84
2023-03-02T07:11:30.756Z,-0.76
2023-03-02T07:14:35.196Z,-0.72
2023-03-02T07:17:38.762Z,-0.63
2023-03-02T07:20:40.280Z,-0.63
2023-03-02T07:23:41.782Z,-0.58
2023-03-02T07:26:43.411Z,-0.53
2023-03-02T07:29:44.894Z,-0.42
2023-03-02T07:32:48.957Z,-0.34
2023-03-02T07:35:50.661Z,-0.34
2023-03-02T07:38:54.565Z,-0.26
2023-03-02T07:41:57.589Z,-0.16
2023-03-02T07:44:59.250Z,-0.15
2023-03-02T07:48:02.187Z,-0.17
2023-03-02T07:51:04.660Z,-0.14
2023-03-02T07:54:06.213Z,-0.01
2023-03-02T07:57:07.871Z,0.05
2023-03-02T08:00:10.196Z,0.06
2023-03-02T08:03:16.257Z,0.11
2023-03-02T08:06:18.054Z,0.19
2023-03-02T08:09:19.625Z,0.32
2023-03-02T08:12:21.242Z,0.33
2023-03-02T08:15:23.456Z,0.26
2023-03-02T08:18:26.374Z,0.30
2023-03-02T08:21:29.186Z,0.28
2023-03-02T08:24:30.772Z,0.37
2023-03-02T08:27:32.450Z,0.47
2023-03-02T08:30:34.422Z,0.49
2023-03-02T08:33:37.805Z,0.54
2023-03-02T08:36:39.317Z,0.66
2023-03-02T08:39:40.841Z,0.69
2023-03-02T08:42:42.328Z,0.85
2023-03-02T08:45:55.321Z,1.09
2023-03-02T08:48:56.952Z,1.25
2023-03-02T08:51:58.815Z,1.35
2023-03-02T08:55:02.605Z,1.34
2023-03-02T08:58:05.215Z,1.31
2023-03-02T09:01:12.922Z,1.41
2023-03-02T09:04:14.537Z,1.47
2023-03-02T09:07:19.122Z,1.53
2023-03-02T09:10:20.796Z,1.61
2023-03-02T09:13:22.293Z,1.74
2023-03-02T09:16:25.888Z,1.80
2023-03-02T09:19:27.476Z,1.98
2023-03-02T09:22:30.205Z,2.06
2023-03-02T09:25:31.806Z,2.18
2023-03-02T09:28:33.921Z,2.47
2023-03-02T09:31:37.641Z,2.53
2023-03-02T09:34:39.561Z,2.56
2023-03-02T09:37:42.773Z,2.81
2023-03-02T09:40:58.627Z,2.78
2023-03-02T09:44:06.856Z,2.96
2023-03-02T09:47:16.546Z,2.93
2023-03-02T09:50:30.429Z,3.08
2023-03-02T09:53:36.982Z,3.08
2023-03-02T09:56:42.386Z,3.15
2023-03-02T09:59:47.295Z,3.15
2023-03-02T10:02:52.917Z,3.36
2023-03-02T10:05:55.087Z,3.45
2023-03-02T10:08:57.071Z,3.41
2023-03-02T10:12:04.451Z,3.57
2023-03-02T10:15:10.328Z,3.60
2023-03-02T10:18:21.419Z,3.66
2023-03-02T10:21:26.475Z,3.67
2023-03-02T10:24:31.066Z,3.76
2023-03-02T10:27:36.624Z,3.97
2023-03-02T10:30:41.471Z,3.77
2023-03-02T10:33:44.544Z,3.69
2023-03-02T10:36:47.706Z,3.82
2023-03-02T10:39:49.468Z,3.74
2023-03-02T10:42:51.752Z,3.72
2023-03-02T10:46:00.408Z,3.87
2023-03-02T10:49:03.688Z,3.95
2023-03-02T10:52:06.232Z,4.12
2023-03-02T10:55:13.276Z,4.09
2023-03-02T10:58:22.899Z,4.21
2023-03-02T11:01:24.600Z,4.52
2023-03-02T11:04:27.556Z,4.64
2023-03-02T11:07:29.615Z,4.53
2023-03-02T11:10:32.386Z,4.81
2023-03-02T11:13:35.606Z,4.86
2023-03-02T11:16:37.414Z,4.77
2023-03-02T11:19:41.130Z,4.75
2023-03-02T11:22:47.327Z,4.81
2023-03-02T11:25:52.075Z,5.07
2023-03-02T11:28:58.310Z,5.27
2023-03-02T11:32:06.676Z,4.98
2023-03-02T11:35:12.398Z,4.87
2023-03-02T11:38:17.221Z,5.14
2023-03-02T11:41:27.393Z,5.47
2023-03-02T11:44:29.791Z,5.45
2023-03-02T11:47:32.439Z,5.48
2023-03-02T11:50:37.652Z,5.42
2023-03-02T11:53:41.542Z,5.58
2023-03-02T11:56:43.578Z,5.44
2023-03-02T11:59:45.378Z,5.72
2023-03-02T12:02:57.470Z,6.01
2023-03-02T12:06:03.900Z,5.88
2023-03-02T12:09:09.761Z,5.96
2023-03-02T12:12:29.519Z,6.03
2023-03-02T12:15:37.271Z,6.15
2023-03-02T12:18:43.822Z,6.35
2023-03-02T12:21:57.417Z,6.22
2023-03-02T12:25:00.746Z,6.29
2023-03-02T12:28:03.842Z,6.13
2023-03-02T12:31:07.271Z,6.09
2023-03-02T12:34:27.873Z,6.22
2023-03-02T12:37:32.423Z,6.33
2023-03-02T12:40:40.703Z,6.54
2023-03-02T12:43:44.113Z,6.60
2023-03-02T12:46:46.610Z,6.33
2023-03-02T12:49:51.300Z,6.56
2023-03-02T12:52:59.282Z,6.73
2023-03-02T12:56:00.940Z,6.85
2023-03-02T12:59:02.871Z,6.53
2023-03-02T13:02:13.813Z,6.45
2023-03-02T13:05:18.110Z,6.52
2023-03-02T13:08:24.330Z,6.60
2023-03-02T13:14:50.060Z,6.88
2023-03-02T13:17:56.136Z,6.87
2023-03-02T13:20:59.200Z,6.92
2023-03-02T13:24:02.564Z,6.95
2023-03-02T13:27:05.771Z,6.75
2023-03-02T13:30:11.750Z,6.89
2023-03-02T13:33:19.921Z,6.91
2023-03-02T13:36:22.694Z,6.95
2023-03-02T13:39:27.208Z,7.10
2023-03-02T13:42:34.075Z,7.20
2023-03-02T13:45:35.937Z,7.10
2023-03-02T13:48:37.439Z,7.19
2023-03-02T13:51:40.040Z,7.34
2023-03-02T13:54:44.290Z,7.20
2023-03-02T13:57:46.199Z,7.24
2023-03-02T14:00:48.062Z,7.39
2023-03-02T14:03:49.603Z,7.24
2023-03-02T14:06:51.611Z,7.21
2023-03-02T14:09:56.576Z,7.28
2023-03-02T14:13:02.091Z,7.08
2023-03-02T14:16:04.018Z,6.77
2023-03-02T14:19:05.730Z,6.59
2023-03-02T14:22:10.059Z,6.49
2023-03-02T14:25:13.485Z,6.42
2023-03-02T14:28:20.083Z,6.31
2023-03-02T14:31:24.090Z,6.16
2023-03-02T14:34:26.242Z,6.17
2023-03-02T14:37:28.786Z,6.12
2023-03-02T14:40:31.695Z,6.21
2023-03-02T14:43:33.379Z,6.01
2023-03-02T14:46:34.905Z,5.84
2023-03-02T14:49:36.774Z,5.78
2023-03-02T14:52:40.300Z,5.61
2023-03-02T14:55:43.789Z,5.50
2023-03-02T14:58:45.663Z,5.47
2023-03-02T15:01:47.284Z,5.60
2023-03-02T15:04:53.301Z,5.64
2023-03-02T15:07:58.687Z,5.51
2023-03-02T15:11:01.758Z,5.47
2023-03-02T15:14:03.270Z,5.42
2023-03-02T15:17:05.013Z,5.38
2023-03-02T15:20:07.436Z,5.37
2023-03-02T15:23:09.718Z,5.29
2023-03-02T15:26:13.326Z,5.31
2023-03-02T15:29:15.065Z,5.21
2023-03-02T15:32:17.020Z,5.09
2023-03-02T15:35:18.834Z,4.88
2023-03-02T15:38:20.671Z,4.84
2023-03-02T15:41:23.792Z,4.85
2023-03-02T15:44:25.518Z,4.65
2023-03-02T15:47:27.103Z,4.48
2023-03-02T15:50:28.648Z,4.34
2023-03-02T15:53:30.733Z,4.17
2023-03-02T15:56:43.808Z,4.09
2023-03-02T15:59:46.303Z,3.96
2023-03-02T16:02:48.438Z,3.89
2023-03-02T16:05:49.992Z,3.79
2023-03-02T16:08:51.553Z,3.67
2023-03-02T16:11:54.426Z,3.57
2023-03-02T16:14:56.032Z,3.45
2023-03-02T16:17:57.595Z,3.48
2023-03-02T16:21:01.925Z,3.52
2023-03-02T16:24:04.699Z,3.51
2023-03-02T16:27:07.576Z,3.38
2023-03-02T16:30:09.855Z,3.24
2023-03-02T16:33:12.778Z,3.16
2023-03-02T16:36:14.638Z,3.12
2023-03-02T16:39:16.441Z,3.02
2023-03-02T16:42:21.251Z,2.91
2023-03-02T16:45:23.437Z,2.86
2023-03-02T16:48:24.993Z,2.82
2023-03-02T16:51:26.913Z,2.72
2023-03-02T16:54:28.971Z,2.64
2023-03-02T16:57:31.939Z,2.54
2023-03-02T17:00:34.177Z,2.58
2023-03-02T17:03:35.866Z,2.52
2023-03-02T17:06:38.891Z,2.43
2023-03-02T17:09:41.484Z,2.29
2023-03-02T17:12:44.382Z,2.10
2023-03-02T17:15:46.290Z,1.96
2023-03-02T17:18:47.972Z,1.84
2023-03-02T17:21:49.510Z,1.74
2023-03-02T17:24:51.289Z,1.59
2023-03-02T17:27:54.260Z,1.51
2023-03-02T17:30:55.828Z,1.40
2023-03-02T17:33:57.815Z,1.26
2023-03-02T17:37:02.616Z,1.19
2023-03-02T17:40:04.755Z,1.06
2023-03-02T17:43:08.387Z,0.92
2023-03-02T17:46:14.527Z,0.84
2023-03-02T17:49:16.205Z,0.77
2023-03-02T17:52:18.536Z,0.70
2023-03-02T17:55:20.853Z,0.63
2023-03-02T17:58:25.252Z,0.56
2023-03-02T18:01:29.900Z,0.54
2023-03-02T18:04:31.619Z,0.52
2023-03-02T18:07:33.263Z,0.53
2023-03-02T18:10:34.803Z,0.48
2023-03-02T18:13:37.790Z,0.43
2023-03-02T18:16:39.335Z,0.39
2023-03-02T18:19:41.056Z,0.33
2023-03-02T18:22:42.680Z,0.30
2023-03-02T18:25:45.407Z,0.34
2023-03-02T18:28:48.293Z,0.24
2023-03-02T18:31:50.280Z,0.25
2023-03-02T18:34:51.898Z,0.30
2023-03-02T18:37:53.682Z,0.37
2023-03-02T18:40:59.767Z,0.42
2023-03-02T18:44:03.939Z,0.45
2023-03-02T18:47:07.511Z,0.42
2023-03-02T18:50:11.072Z,0.51
2023-03-02T18:53:13.094Z,0.50
2023-03-02T18:56:15.415Z,0.41
2023-03-02T18:59:18.813Z,0.36
2023-03-02T19:02:20.495Z,0.32
2023-03-02T19:05:22.910Z,0.34
2023-03-02T19:08:25.074Z,0.47
2023-03-02T19:11:26.694Z,0.53
2023-03-02T19:14:29.753Z,0.52
2023-03-02T19:17:31.298Z,0.55
2023-03-02T19:20:32.980Z,0.51
2023-03-02T19:23:34.848Z,0.44
2023-03-02T19:26:36.734Z,0.46
2023-03-02T19:29:40.343Z,0.44
2023-03-02T19:32:41.956Z,0.51
2023-03-02T19:35:44.026Z,0.48
2023-03-02T19:38:45.828Z,0.56
2023-03-02T19:41:47.543Z,0.52
2023-03-02T19:44:50.684Z,0.48
2023-03-02T19:47:52.479Z,0.43
2023-03-02T19:50:54.208Z,0.45
2023-03-02T19:53:57.619Z,0.45
2023-03-02T19:56:59.477Z,0.48
2023-03-02T20:00:06.036Z,0.49
2023-03-02T20:03:08.655Z,0.45
2023-03-02T20:06:10.421Z,0.42
2023-03-02T20:09:14.524Z,0.37
2023-03-02T20:12:16.250Z,0.39
2023-03-02T20:15:19.434Z,0.46
2023-03-02T20:18:21.033Z,0.40
2023-03-02T20:21:25.865Z,0.43
2023-03-02T20:24:27.546Z,0.42
2023-03-02T20:27:29.194Z,0.47
2023-03-02T20:30:34.853Z,0.49
2023-03-02T20:33:37.948Z,0.35
2023-03-02T20:36:39.727Z,0.19
2023-03-02T20:39:42.209Z,0.15
2023-03-02T20:42:44.708Z,0.19
2023-03-02T20:45:49.216Z,0.27
2023-03-02T20:48:51.350Z,0.38
2023-03-02T20:51:54.910Z,0.43
2023-03-02T20:54:57.018Z,0.44
2023-03-02T20:57:58.855Z,0.39
2023-03-02T21:01:02.549Z,0.34
2023-03-02T21:04:06.271Z,0.35
2023-03-02T21:07:08.717Z,0.30
2023-03-02T21:10:11.514Z,0.28
2023-03-02T21:13:13.280Z,0.33
2023-03-02T21:16:18.590Z,0.33
2023-03-02T21:19:23.812Z,0.35
2023-03-02T21:22:25.586Z,0.32
2023-03-02T21:25:27.761Z,0.22
2023-03-02T21:28:29.387Z,0.10
2023-03-02T21:31:32.741Z,0.00
2023-03-02T21:34:36.582Z,-0.06
2023-03-02T21:37:40.349Z,-0.11
2023-03-02T21:40:45.926Z,-0.16
2023-03-02T21:43:48.131Z,-0.15
2023-03-02T21:46:51.361Z,-0.15
2023-03-02T21:49:54.257Z,-0.04
2023-03-02T21:52:58.562Z,0.11
2023-03-02T21:56:01.809Z,0.07
2023-03-02T21:59:04.138Z,0.11
2023-03-02T22:02:07.657Z,-0.05
2023-03-02T22:05:09.663Z,-0.06
2023-03-02T22:08:13.579Z,-0.08
2023-03-02T22:11:19.485Z,-0.14
2023-03-02T22:14:21.054Z,-0.09
2023-03-02T22:17:24.874Z,-0.09
2023-03-02T22:20:26.846Z,0.04
2023-03-02T22:23:28.536Z,-0.08
2023-03-02T22:26:30.598Z,-0.06
2023-03-02T22:29:35.656Z,0.05
2023-03-02T22:32:38.741Z,0.07
2023-03-02T22:35:42.475Z,0.05
2023-03-02T22:38:44.174Z,-0.01
2023-03-02T22:41:45.969Z,-0.11
2023-03-02T22:44:50.435Z,-0.13
2023-03-02T22:47:54.102Z,-0.10
2023-03-02T22:50:55.878Z,-0.13
2023-03-02T22:53:58.566Z,-0.15
2023-03-02T22:57:00.111Z,-0.23
2023-03-02T23:00:20.301Z,-0.18
2023-03-02T23:03:32.065Z,-0.08
2023-03-02T23:06:38.196Z,0.00
2023-03-02T23:09:39.737Z,-0.12
2023-03-02T23:12:41.961Z,-0.17
2023-03-02T23:15:43.688Z,-0.16
2023-03-02T23:18:48.181Z,-0.20
2023-03-02T23:25:10.692Z,-0.23
2023-03-02T23:28:12.577Z,-0.23
2023-03-02T23:31:14.361Z,-0.26
2023-03-02T23:34:17.376Z,-0.29
2023-03-02T23:37:19.289Z,-0.33
2023-03-02T23:40:21.755Z,-0.25
2023-03-02T23:43:23.506Z,-0.19
2023-03-02T23:46:25.707Z,-0.22
2023-03-02T23:49:29.084Z,-0.10
2023-03-02T23:52:30.633Z,-0.04
2023-03-02T23:55:33.147Z,0.00
2023-03-02T23:58:34.912Z,0.03
